Time;durP1;ratioP1;P1;durP2;ratioP2;P2;SDS_P1;SDS_P2;PMS_P1;PMS_P2;Temp;Humidity;BMP_temperature;BMP_pressure;BME280_temperature;BME280_humidity;BME280_pressure;Samples;Min_cycle;Max_cycle;Signal;HPM_P1;HPM_P2
2024/01/16 00:00:55;;;;;;;31.42;14.48;;;;;;;-0.54;100.00;100287.19;4882491;28;20122;-94
2024/01/16 00:03:31;;;;;;;29.25;13.10;;;;;;;-0.63;100.00;100288.47;4884441;29;20036;-94
2024/01/16 00:05:58;;;;;;;22.98;11.95;;;;;;;-0.75;100.00;100293.34;4894771;29;20090;-90
2024/01/16 00:08:24;;;;;;;22.05;11.57;;;;;;;-0.94;100.00;100290.81;4911838;29;20047;-94
2024/01/16 00:11:54;;;;;;;20.90;10.60;;;;;;;-0.96;100.00;100282.28;4884848;29;20040;-94
2024/01/16 00:23:36;;;;;;;18.25;9.20;;;;;;;-0.92;100.00;100273.41;4853538;29;20045;-92
2024/01/16 00:26:06;;;;;;;20.00;10.15;;;;;;;-0.94;100.00;100274.41;4824838;29;20503;-94
2024/01/16 00:28:40;;;;;;;16.92;9.98;;;;;;;-0.88;100.00;100276.72;4872315;29;20048;-94
2024/01/16 00:36:25;;;;;;;15.88;8.52;;;;;;;-1.01;100.00;100255.69;4876469;29;20537;-94
2024/01/16 00:39:40;;;;;;;17.55;8.60;;;;;;;-1.03;100.00;100244.56;4858669;29;20083;-93
2024/01/16 00:42:51;;;;;;;17.67;8.32;;;;;;;-1.06;100.00;100244.69;4860697;29;20116;-93
2024/01/16 00:45:33;;;;;;;13.95;8.05;;;;;;;-1.14;100.00;100232.94;4827640;29;20041;-93
2024/01/16 00:47:59;;;;;;;18.20;8.55;;;;;;;-1.23;100.00;100233.41;4856940;29;20069;-94
2024/01/16 00:50:46;;;;;;;12.65;7.78;;;;;;;-1.15;100.00;100231.25;4874804;29;20139;-93
2024/01/16 00:53:12;;;;;;;17.80;8.75;;;;;;;-1.19;100.00;100234.06;4871630;29;20052;-94
2024/01/16 00:55:38;;;;;;;15.52;8.15;;;;;;;-1.29;100.00;100220.72;4865697;29;20119;-94
2024/01/16 00:58:04;;;;;;;18.77;8.48;;;;;;;-1.29;100.00;100220.72;4871470;29;20048;-93
2024/01/16 01:00:31;;;;;;;13.70;7.82;;;;;;;-1.29;100.00;100223.31;4868143;29;20099;-93
2024/01/16 01:07:51;;;;;;;19.38;7.60;;;;;;;-1.21;100.00;100213.41;4876608;29;20122;-94
2024/01/16 01:10:22;;;;;;;17.83;7.28;;;;;;;-1.27;100.00;100211.09;4884571;29;20127;-93
2024/01/16 01:20:47;;;;;;;12.73;6.82;;;;;;;-1.21;100.00;100197.84;4922974;29;20075;-96
2024/01/16 01:23:12;;;;;;;18.90;7.20;;;;;;;-1.22;100.00;100209.13;4866194;29;20033;-94
2024/01/16 01:25:44;;;;;;;13.82;6.10;;;;;;;-1.26;100.00;100189.47;4884886;29;20823;-95
2024/01/16 01:36:13;;;;;;;16.20;8.00;;;;;;;-1.33;100.00;100169.91;4904717;29;20040;-94
2024/01/16 01:38:54;;;;;;;14.07;7.05;;;;;;;-1.37;100.00;100167.47;4876960;29;20528;-94
2024/01/16 01:41:22;;;;;;;21.00;7.70;;;;;;;-1.39;100.00;100171.06;4893329;29;20041;-94
2024/01/16 01:44:16;;;;;;;12.73;7.40;;;;;;;-1.43;100.00;100147.03;4862263;29;20041;-94
2024/01/16 01:51:23;;;;;;;16.55;7.95;;;;;;;-1.58;100.00;100140.00;4902108;29;20066;-94
2024/01/16 01:54:11;;;;;;;;;;;;;;;;;;;;;
2024/01/16 02:01:55;;;;;;;18.35;7.13;;;;;;;-1.62;100.00;100142.72;4845995;29;20150;-95
2024/01/16 02:04:36;;;;;;;21.63;8.10;;;;;;;-1.62;100.00;100147.91;4824979;29;20332;-93
2024/01/16 02:07:19;;;;;;;13.43;7.20;;;;;;;-1.66;100.00;100128.25;4834369;29;20053;-94
2024/01/16 02:14:46;;;;;;;17.63;10.60;;;;;;;-1.65;100.00;100135.09;4842715;29;20133;-94
2024/01/16 02:22:33;;;;;;;;;;;;;;;;;;;;;
2024/01/16 02:34:30;;;;;;;18.30;8.85;;;;;;;-1.68;100.00;100109.34;4875333;29;20060;-94
2024/01/16 02:37:22;;;;;;;18.63;9.18;;;;;;;-1.62;100.00;100105.59;4867499;29;20051;-95
2024/01/16 02:40:17;;;;;;;24.48;8.48;;;;;;;-1.56;100.00;100109.66;4894559;29;20036;-83
2024/01/16 02:51:25;;;;;;;15.82;7.95;;;;;;;-1.64;100.00;100104.84;4856271;29;20057;-94
2024/01/16 02:54:35;;;;;;;20.50;8.80;;;;;;;-1.58;100.00;100093.34;4860642;29;20145;-94
2024/01/16 02:57:32;;;;;;;20.63;8.85;;;;;;;-1.59;100.00;100099.44;4889919;29;20082;-94
2024/01/16 03:08:04;;;;;;;27.25;8.85;;;;;;;-1.67;100.00;100084.25;4890761;29;20449;-94
2024/01/16 03:14:53;;;;;;;21.25;9.00;;;;;;;-1.75;100.00;100062.13;4842309;29;20106;-95
2024/01/16 03:23:53;;;;;;;17.05;8.13;;;;;;;-1.81;100.00;100053.81;4829177;29;20041;-94
2024/01/16 03:26:42;;;;;;;15.98;9.13;;;;;;;-1.76;100.00;100038.88;4809473;29;20547;-94
2024/01/16 03:37:23;;;;;;;18.70;9.23;;;;;;;-1.98;100.00;100020.94;4891371;29;20055;-95
2024/01/16 03:39:54;;;;;;;20.95;9.25;;;;;;;-1.94;100.00;100025.09;4903699;29;20039;-93
2024/01/16 03:42:29;;;;;;;23.00;9.45;;;;;;;-1.85;100.00;100032.41;4884916;29;20100;-94
2024/01/16 03:45:02;;;;;;;21.38;10.02;;;;;;;-1.89;100.00;100036.91;4913277;29;20401;-94
2024/01/16 03:47:28;;;;;;;14.38;8.35;;;;;;;-1.94;100.00;100028.50;4890505;29;20047;-94
2024/01/16 03:49:54;;;;;;;22.90;9.23;;;;;;;-1.93;100.00;100026.75;4904665;29;20040;-93
2024/01/16 03:52:20;;;;;;;16.98;8.38;;;;;;;-1.91;100.00;100028.34;4923710;29;20039;-95
2024/01/16 03:54:45;;;;;;;14.07;8.18;;;;;;;-1.91;100.00;100023.16;4906812;29;20046;-94
2024/01/16 03:57:12;;;;;;;17.92;8.65;;;;;;;-1.91;100.00;100030.13;4892778;29;20509;-95
2024/01/16 03:59:38;;;;;;;12.63;7.95;;;;;;;-1.93;100.00;100034.53;4916744;29;20385;-94
2024/01/16 04:02:04;;;;;;;15.63;8.38;;;;;;;-1.95;100.00;100032.00;4902727;29;20484;-94
2024/01/16 04:08:20;;;;;;;17.48;7.95;;;;;;;-2.06;100.00;100019.59;4900110;29;20044;-94
2024/01/16 04:10:55;;;;;;;15.43;7.55;;;;;;;-2.12;100.00;100004.34;4915640;29;20472;-94
2024/01/16 04:13:40;;;;;;;20.67;8.05;;;;;;;-2.07;100.00;100010.13;4921040;29;20503;-95
2024/01/16 04:19:02;;;;;;;20.88;8.32;;;;;;;-2.18;100.00;99989.91;4945230;28;20074;-93
2024/01/16 04:21:33;;;;;;;14.10;7.28;;;;;;;-2.17;100.00;99994.22;4916498;29;20103;-94
2024/01/16 04:24:05;;;;;;;17.08;7.88;;;;;;;-2.11;100.00;99995.66;4920712;29;20139;-94
2024/01/16 04:26:31;;;;;;;11.38;6.97;;;;;;;-2.18;100.00;99989.91;4909390;29;20036;-95
2024/01/16 04:28:57;;;;;;;13.77;6.82;;;;;;;-2.22;100.00;99988.41;4905249;29;20039;-94
2024/01/16 04:31:22;;;;;;;15.13;8.55;;;;;;;-2.31;100.00;99981.06;4887389;29;20047;-94
2024/01/16 04:33:48;;;;;;;19.77;8.45;;;;;;;-2.30;100.00;99986.19;4906163;29;20118;-94
2024/01/16 04:36:14;;;;;;;18.65;8.25;;;;;;;-2.32;100.00;99974.19;4901437;29;20139;-94
2024/01/16 04:38:47;;;;;;;18.15;7.75;;;;;;;-2.42;100.00;99971.22;4911396;29;20035;-95
2024/01/16 04:41:13;;;;;;;17.38;7.90;;;;;;;-2.41;100.00;99968.56;4889043;29;20039;-94
2024/01/16 04:43:42;;;;;;;12.80;7.15;;;;;;;-2.41;100.00;99975.47;4910646;29;20626;-94
2024/01/16 04:46:11;;;;;;;15.50;8.10;;;;;;;-2.43;100.00;99966.94;4904416;29;20063;-95
2024/01/16 04:48:49;;;;;;;14.95;8.57;;;;;;;-2.39;100.00;99968.50;4888529;29;20040;-95
2024/01/16 04:51:24;;;;;;;14.77;7.90;;;;;;;-2.32;100.00;99966.44;4892080;29;20497;-95
2024/01/16 04:53:53;;;;;;;19.20;8.00;;;;;;;-2.28;100.00;99958.44;4902032;29;20115;-94
2024/01/16 04:56:22;;;;;;;21.20;7.70;;;;;;;-2.28;100.00;99950.69;4885606;29;20043;-94
2024/01/16 04:58:56;;;;;;;13.90;7.38;;;;;;;-2.29;100.00;99953.34;4898406;29;20032;-95
2024/01/16 05:01:25;;;;;;;16.17;7.85;;;;;;;-2.30;100.00;99934.41;4902843;29;20062;-94
2024/01/16 05:03:51;;;;;;;11.77;7.25;;;;;;;-2.33;100.00;99928.53;4903203;29;20066;-94
2024/01/16 05:06:25;;;;;;;20.17;7.20;;;;;;;-2.30;100.00;99930.97;4902896;29;20039;-94
2024/01/16 05:08:58;;;;;;;33.38;7.68;;;;;;;-2.30;100.00;99931.81;4899453;29;20044;-95
2024/01/16 05:11:37;;;;;;;13.35;6.70;;;;;;;-2.31;100.00;99932.69;4890894;29;20030;-95
2024/01/16 05:14:07;;;;;;;16.70;6.22;;;;;;;-2.31;100.00;99937.88;4886262;29;20023;-95
2024/01/16 05:16:33;;;;;;;15.88;6.70;;;;;;;-2.37;100.00;99925.22;4881737;29;20043;-94
2024/01/16 05:18:58;;;;;;;14.80;7.05;;;;;;;-2.41;100.00;99924.56;4898306;29;20642;-94
2024/01/16 05:21:24;;;;;;;12.80;6.55;;;;;;;-2.41;100.00;99926.31;4903045;29;20118;-94
2024/01/16 05:23:50;;;;;;;15.65;6.53;;;;;;;-2.43;100.00;99908.25;4875933;29;20096;-94
2024/01/16 05:26:17;;;;;;;23.63;6.80;;;;;;;-2.40;100.00;99899.50;4877922;29;20139;-95
2024/01/16 05:28:43;;;;;;;15.35;6.47;;;;;;;-2.42;100.00;99889.22;4911999;29;20036;-94
2024/01/16 05:31:08;;;;;;;18.00;6.78;;;;;;;-2.43;100.00;99884.97;4889294;29;20127;-94
2024/01/16 05:33:34;;;;;;;13.15;6.15;;;;;;;-2.45;100.00;99875.63;4885853;29;20040;-94
2024/01/16 05:36:00;;;;;;;15.65;6.35;;;;;;;-2.49;100.00;99859.38;4887277;29;20896;-94
2024/01/16 05:38:26;;;;;;;13.18;6.22;;;;;;;-2.43;100.00;99850.47;4887604;29;20051;-94
2024/01/16 05:40:52;;;;;;;14.35;5.72;;;;;;;-2.41;100.00;99848.66;4887722;29;20779;-95
2024/01/16 05:43:18;;;;;;;13.57;5.63;;;;;;;-2.38;100.00;99853.69;4888177;29;20126;-94
2024/01/16 05:45:44;;;;;;;12.77;5.63;;;;;;;-2.37;100.00;99845.00;4888601;29;20156;-94
2024/01/16 05:48:10;;;;;;;16.95;6.28;;;;;;;-2.33;100.00;99848.28;4888398;29;20067;-93
2024/01/16 05:50:36;;;;;;;13.63;5.63;;;;;;;-2.34;100.00;99854.38;4901790;29;20034;-95
2024/01/16 05:53:02;;;;;;;12.90;6.05;;;;;;;-2.37;100.00;99853.59;4903200;29;20040;-94
2024/01/16 05:55:31;;;;;;;11.93;5.65;;;;;;;-2.35;100.00;99852.69;4902241;29;20035;-94
2024/01/16 05:57:59;;;;;;;12.20;5.55;;;;;;;-2.29;100.00;99844.59;4886219;29;20048;-94
2024/01/16 06:00:25;;;;;;;8.90;5.65;;;;;;;-2.29;100.00;99835.09;4919654;29;20050;-94
2024/01/16 06:02:51;;;;;;;15.00;5.65;;;;;;;-2.27;100.00;99843.63;4893182;29;20031;-94
2024/01/16 06:05:16;;;;;;;17.65;5.90;;;;;;;-2.29;100.00;99844.59;4906415;29;20077;-94
2024/01/16 06:07:42;;;;;;;19.38;6.22;;;;;;;-2.24;100.00;99837.47;4903799;29;20063;-94
2024/01/16 06:10:11;;;;;;;11.57;5.18;;;;;;;-2.21;100.00;99844.25;4893365;29;20043;-94
2024/01/16 06:12:37;;;;;;;8.68;6.15;;;;;;;-2.21;100.00;99834.72;4903460;29;20393;-95
2024/01/16 06:15:03;;;;;;;10.88;4.57;;;;;;;-2.27;100.00;99822.06;4887528;29;20051;-95
2024/01/16 06:17:29;;;;;;;9.45;5.35;;;;;;;-2.30;100.00;99815.31;4902544;29;20040;-85
2024/01/16 06:19:55;;;;;;;9.10;5.07;;;;;;;-2.24;100.00;99824.50;4912521;29;20047;-95
2024/01/16 06:22:21;;;;;;;11.18;4.30;;;;;;;-2.22;100.00;99812.34;4887974;28;20043;-94
2024/01/16 06:24:46;;;;;;;9.13;4.70;;;;;;;-2.20;100.00;99801.91;4898202;29;20424;-94
2024/01/16 06:27:18;;;;;;;13.93;4.97;;;;;;;-2.23;100.00;99794.28;4891732;29;20065;-94
2024/01/16 06:29:45;;;;;;;10.40;4.43;;;;;;;-2.20;100.00;99801.91;4905079;29;20113;-95
2024/01/16 06:32:11;;;;;;;9.82;4.15;;;;;;;-2.23;100.00;99796.88;4887395;29;20104;-94
2024/01/16 06:34:37;;;;;;;10.90;4.70;;;;;;;-2.29;100.00;99798.84;4893460;29;20049;-94
2024/01/16 06:37:03;;;;;;;9.15;3.95;;;;;;;-2.37;100.00;99793.22;4878389;29;20052;-94
2024/01/16 06:39:29;;;;;;;16.35;4.30;;;;;;;-2.43;100.00;99791.78;4890715;29;20039;-94
2024/01/16 06:41:55;;;;;;;7.63;4.15;;;;;;;-2.43;100.00;99788.34;4888188;29;20046;-92
2024/01/16 06:44:21;;;;;;;12.18;4.38;;;;;;;-2.42;100.00;99792.63;4879028;29;20117;-93
2024/01/16 06:46:46;;;;;;;11.77;4.25;;;;;;;-2.43;100.00;99794.38;4887390;29;20051;-94
2024/01/16 06:49:12;;;;;;;7.40;4.15;;;;;;;-2.41;100.00;99792.56;4898066;29;20047;-94
2024/01/16 06:51:38;;;;;;;11.15;3.85;;;;;;;-2.36;100.00;99781.97;4907673;29;20047;-94
2024/01/16 06:54:04;;;;;;;7.15;3.60;;;;;;;-2.35;100.00;99777.63;4905781;29;20424;-95
2024/01/16 06:56:30;;;;;;;9.15;3.83;;;;;;;-2.33;100.00;99780.97;4889593;29;20047;-94
2024/01/16 06:58:56;;;;;;;9.27;3.55;;;;;;;-2.34;100.00;99774.13;4888056;29;20067;-94
2024/01/16 07:01:22;;;;;;;9.05;4.30;;;;;;;-2.32;100.00;99783.47;4901492;29;20035;-94
2024/01/16 07:03:48;;;;;;;6.68;3.47;;;;;;;-2.34;100.00;99780.13;4909367;29;20488;-94
2024/01/16 07:06:14;;;;;;;6.65;3.38;;;;;;;-2.35;100.00;99772.44;4882411;29;20040;-93
2024/01/16 07:08:39;;;;;;;7.07;3.72;;;;;;;-2.38;100.00;99770.84;4885981;29;20179;-95
2024/01/16 07:11:08;;;;;;;8.20;4.30;;;;;;;-2.39;100.00;99779.53;4902292;29;20051;-95
2024/01/16 07:13:34;;;;;;;8.48;3.70;;;;;;;-2.35;100.00;99788.81;4891578;29;20036;-94
2024/01/16 07:16:00;;;;;;;6.53;3.95;;;;;;;-2.36;100.00;99781.97;4888813;29;20048;-94
2024/01/16 07:18:29;;;;;;;6.88;3.17;;;;;;;-2.35;100.00;99777.63;4902428;29;20063;-94
2024/01/16 07:20:55;;;;;;;8.55;3.05;;;;;;;-2.41;100.00;99779.63;4877592;29;20488;-94
2024/01/16 07:23:21;;;;;;;11.30;3.72;;;;;;;-2.42;100.00;99766.75;4918437;29;20063;-96
2024/01/16 07:25:46;;;;;;;11.23;3.47;;;;;;;-2.42;100.00;99764.97;4884158;29;20040;-94
2024/01/16 07:28:12;;;;;;;8.35;4.32;;;;;;;-2.44;100.00;99763.41;4900345;29;20063;-94
2024/01/16 07:30:38;;;;;;;6.25;3.35;;;;;;;-2.43;100.00;99767.66;4883108;29;20044;-95
2024/01/16 07:33:04;;;;;;;8.73;3.33;;;;;;;-2.46;100.00;99768.66;4891390;29;20040;-95
2024/01/16 07:35:30;;;;;;;10.73;3.53;;;;;;;-2.51;100.00;99765.44;4901189;29;20046;-95
2024/01/16 07:37:55;;;;;;;6.60;3.53;;;;;;;-2.57;100.00;99758.00;4905258;29;20051;-95
2024/01/16 07:40:23;;;;;;;7.22;3.38;;;;;;;-2.57;100.00;99760.59;4898066;29;20048;-95
2024/01/16 07:42:49;;;;;;;5.10;2.85;;;;;;;-2.63;100.00;99748.81;4901643;29;20047;-96
2024/01/16 07:45:15;;;;;;;11.52;4.13;;;;;;;-2.67;100.00;99750.69;4895043;29;20048;-95
2024/01/16 07:47:41;;;;;;;5.47;3.60;;;;;;;-2.69;100.00;99746.53;4903595;29;20114;-95
2024/01/16 07:50:07;;;;;;;6.20;3.42;;;;;;;-2.75;100.00;99743.31;4887648;28;20063;-96
2024/01/16 07:52:33;;;;;;;9.05;3.75;;;;;;;-2.78;100.00;99751.22;4891412;29;20156;-94
2024/01/16 07:54:59;;;;;;;10.45;3.95;;;;;;;-2.80;100.00;99752.22;4903822;29;20118;-95
2024/01/16 07:57:25;;;;;;;6.43;3.03;;;;;;;-2.83;100.00;99753.19;4889848;29;20134;-95
2024/01/16 07:59:50;;;;;;;7.75;3.28;;;;;;;-2.89;100.00;99744.00;4905318;29;20091;-96
2024/01/16 08:02:17;;;;;;;6.88;2.65;;;;;;;-2.94;100.00;99745.97;4895957;29;20032;-95
2024/01/16 08:04:42;;;;;;;13.98;3.13;;;;;;;-3.01;100.00;99740.25;4891102;29;20043;-96
2024/01/16 08:07:08;;;;;;;7.70;2.78;;;;;;;-2.89;100.00;99743.16;4888398;29;20050;-95
2024/01/16 08:09:35;;;;;;;9.55;3.25;;;;;;;-2.81;100.00;99740.19;4889774;29;20361;-95
2024/01/16 08:12:02;;;;;;;8.13;2.72;;;;;;;-2.75;100.00;99730.38;4900855;29;20063;-95
2024/01/16 08:14:29;;;;;;;6.85;2.72;;;;;;;-2.72;100.00;99723.41;4881491;29;20032;-95
2024/01/16 08:16:54;;;;;;;4.93;2.38;;;;;;;-2.70;100.00;99724.13;4886682;29;20039;-95
2024/01/16 08:19:20;;;;;;;11.20;4.22;;;;;;;-2.73;100.00;99712.19;4895525;29;20091;-95
2024/01/16 08:21:46;;;;;;;9.90;2.67;;;;;;;-2.71;100.00;99712.13;4901912;29;20043;-96
2024/01/16 08:24:12;;;;;;;7.43;2.70;;;;;;;-2.71;100.00;99712.13;4901666;29;20127;-95
2024/01/16 08:26:38;;;;;;;8.13;2.97;;;;;;;-2.74;100.00;99703.59;4876085;29;20048;-95
2024/01/16 08:29:05;;;;;;;12.98;2.92;;;;;;;-2.65;100.00;99704.06;4897702;29;20188;-96
2024/01/16 08:31:30;;;;;;;9.95;4.70;;;;;;;-2.63;100.00;99704.81;4898812;29;20036;-94
2024/01/16 08:33:57;;;;;;;6.97;2.97;;;;;;;-2.60;100.00;99696.06;4908008;29;20032;-95
2024/01/16 08:36:23;;;;;;;7.05;2.78;;;;;;;-2.60;100.00;99690.88;4892607;29;20071;-95
2024/01/16 08:38:48;;;;;;;8.25;2.83;;;;;;;-2.59;100.00;99698.56;4885172;29;20067;-95
2024/01/16 08:41:15;;;;;;;8.52;4.53;;;;;;;-2.61;100.00;99702.97;4877993;29;20051;-95
2024/01/16 08:43:41;;;;;;;12.15;5.00;;;;;;;-2.61;100.00;99702.97;4891757;29;20039;-95
2024/01/16 08:46:07;;;;;;;15.57;6.68;;;;;;;-2.60;100.00;99702.06;4885107;29;20044;-96
2024/01/16 08:48:38;;;;;;;19.63;8.93;;;;;;;-2.64;100.00;99691.03;4895351;29;20062;-96
2024/01/16 08:51:11;;;;;;;21.95;10.95;;;;;;;-2.60;100.00;99686.56;4894578;29;20044;-96
2024/01/16 08:53:37;;;;;;;29.23;15.50;;;;;;;-2.59;100.00;99693.38;4884988;29;20485;-95
2024/01/16 08:56:06;;;;;;;30.45;17.13;;;;;;;-2.54;100.00;99704.34;4900405;29;20048;-96
2024/01/16 08:58:35;;;;;;;42.17;21.67;;;;;;;-2.50;100.00;99705.84;4899673;29;20079;-85
2024/01/16 09:01:03;;;;;;;23.35;13.23;;;;;;;-2.44;100.00;99711.63;4892670;29;20044;-96
2024/01/16 09:03:30;;;;;;;46.72;28.63;;;;;;;-2.47;100.00;99701.44;4899816;29;20545;-96
2024/01/16 09:05:55;;;;;;;35.55;21.52;;;;;;;-2.41;100.00;99707.16;4902548;29;20044;-95
2024/01/16 09:08:21;;;;;;;34.55;21.50;;;;;;;-2.39;100.00;99700.13;4881073;29;20091;-96
2024/01/16 09:10:52;;;;;;;20.35;10.88;;;;;;;-2.40;100.00;99688.09;4884358;29;20059;-96
2024/01/16 09:13:22;;;;;;;10.15;4.13;;;;;;;-2.40;100.00;99690.69;4897717;29;20119;-96
2024/01/16 09:15:54;;;;;;;29.15;18.13;;;;;;;-2.37;100.00;99681.91;4905348;29;20051;-96
2024/01/16 09:18:23;;;;;;;21.40;12.93;;;;;;;-2.38;100.00;99680.25;4898623;29;20048;-96
2024/01/16 09:20:49;;;;;;;49.45;32.83;;;;;;;-2.26;100.00;99689.13;4887012;29;20507;-96
2024/01/16 09:23:19;;;;;;;19.95;13.35;;;;;;;-2.22;100.00;99677.72;4887493;29;20066;-96
2024/01/16 09:25:58;;;;;;;26.45;20.55;;;;;;;-2.10;100.00;99675.38;4905181;29;20041;-96
2024/01/16 09:28:24;;;;;;;10.27;6.35;;;;;;;-2.08;100.00;99669.19;4897978;29;20067;-95
2024/01/16 09:31:03;;;;;;;14.85;8.88;;;;;;;-1.94;100.00;99665.88;4898918;29;20072;-96
2024/01/16 09:33:29;;;;;;;7.88;5.32;;;;;;;-1.96;100.00;99661.69;4896009;29;20072;-95
2024/01/16 09:35:56;;;;;;;12.07;7.07;;;;;;;-1.91;100.00;99652.75;4887258;29;20036;-96
2024/01/16 09:38:26;;;;;;;10.43;4.45;;;;;;;-1.93;100.00;99641.66;4922276;29;20082;-96
2024/01/16 09:40:58;;;;;;;13.30;8.35;;;;;;;-1.80;100.00;99635.78;4891235;29;20044;-96
2024/01/16 09:43:27;;;;;;;24.27;12.52;;;;;;;-1.75;100.00;99632.00;4897148;29;20125;-96
2024/01/16 09:45:55;;;;;;;13.32;6.75;;;;;;;-1.72;100.00;99636.19;4876864;29;20052;-96
2024/01/16 09:48:21;;;;;;;13.70;5.60;;;;;;;-1.70;100.00;99634.34;4896312;29;20064;-96
2024/01/16 09:51:31;;;;;;;22.75;12.52;;;;;;;-1.58;100.00;99624.22;4893808;29;20409;-96
2024/01/16 09:53:57;;;;;;;138.27;73.22;;;;;;;-1.53;100.00;99627.41;4882460;29;20051;-96
2024/01/16 09:56:24;;;;;;;31.98;16.85;;;;;;;-1.44;100.00;99629.47;4895783;29;20067;-96
2024/01/16 09:58:56;;;;;;;20.20;10.52;;;;;;;-1.37;100.00;99628.19;4885913;29;20119;-96
2024/01/16 10:01:26;;;;;;;10.73;4.78;;;;;;;-1.35;100.00;99617.72;4883003;29;20035;-96
2024/01/16 10:03:52;;;;;;;27.70;15.25;;;;;;;-1.29;100.00;99613.97;4897857;29;20043;-96
2024/01/16 10:06:27;;;;;;;13.80;8.18;;;;;;;-1.17;100.00;99622.78;4892845;29;20396;-96
2024/01/16 10:08:53;;;;;;;25.20;13.25;;;;;;;-1.16;100.00;99616.66;4877107;29;20036;-96
2024/01/16 10:11:45;;;;;;;24.73;15.15;;;;;;;-1.05;100.00;99616.06;4901110;29;20048;-96
2024/01/16 10:14:11;;;;;;;11.60;4.32;;;;;;;-1.09;100.00;99610.19;4895181;29;20044;-96
2024/01/16 10:16:59;;;;;;;7.82;3.10;;;;;;;-0.91;100.00;99607.44;4886023;29;20036;-96
2024/01/16 10:19:27;;;;;;;8.75;3.03;;;;;;;-0.79;100.00;99604.13;4897268;29;20127;-96
2024/01/16 10:22:00;;;;;;;11.57;4.68;;;;;;;-0.71;100.00;99603.66;4898414;29;20063;-96
2024/01/16 10:24:26;;;;;;;9.55;2.50;;;;;;;-0.65;100.00;99595.50;4885520;29;20123;-96
2024/01/16 10:27:00;;;;;;;19.35;10.10;;;;;;;-0.53;100.00;99590.50;4875279;29;20131;-96
2024/01/16 10:29:26;;;;;;;7.95;4.00;;;;;;;-0.55;100.00;99580.22;4898051;29;20067;-85
2024/01/16 10:31:52;;;;;;;12.10;6.47;;;;;;;-0.53;100.00;99583.56;4881351;29;20063;-96
2024/01/16 10:34:22;;;;;;;14.98;7.30;;;;;;;-0.45;100.00;99582.22;4880698;29;20067;-96
2024/01/16 10:36:51;;;;;;;8.93;5.03;;;;;;;-0.39;100.00;99582.69;4882652;29;20067;-96
2024/01/16 10:39:18;;;;;;;7.90;3.75;;;;;;;-0.38;100.00;99583.50;4907476;29;20122;-96
2024/01/16 10:41:57;;;;;;;15.38;8.80;;;;;;;-0.28;100.00;99573.38;4899482;29;20035;-96
2024/01/16 10:44:23;;;;;;;8.90;5.55;;;;;;;-0.27;100.00;99564.69;4898418;29;20040;-96
2024/01/16 10:46:49;;;;;;;12.90;8.80;;;;;;;-0.22;100.00;99561.81;4902769;29;20130;-96
2024/01/16 10:49:15;;;;;;;9.93;5.95;;;;;;;-0.16;100.00;99556.22;4903928;29;21006;-96
2024/01/16 10:51:45;;;;;;;11.98;7.68;;;;;;;-0.06;100.00;99540.84;4892802;29;20031;-96
2024/01/16 10:54:16;;;;;;;10.32;5.75;;;;;;;0.08;100.00;99558.19;4895163;29;20095;-95
2024/01/16 10:56:48;;;;;;;12.27;8.55;;;;;;;0.19;100.00;99555.69;4904104;29;20202;-96
2024/01/16 10:59:39;;;;;;;9.88;6.03;;;;;;;0.25;100.00;99544.09;4904238;29;20079;-96
2024/01/16 11:02:10;;;;;;;8.38;3.90;;;;;;;0.27;100.00;99544.81;4897364;29;20043;-96
2024/01/16 11:04:38;;;;;;;4.93;2.35;;;;;;;0.26;100.00;99526.72;4896832;29;20031;-96
2024/01/16 11:07:05;;;;;;;8.65;2.40;;;;;;;0.30;100.00;99533.38;4891772;29;20039;-95
2024/01/16 11:09:31;;;;;;;7.88;2.58;;;;;;;0.36;100.00;99528.63;4889758;29;20035;-96
2024/01/16 11:11:58;;;;;;;3.90;2.08;;;;;;;0.41;100.00;99514.47;4909244;29;20040;-95
2024/01/16 11:14:25;;;;;;;7.30;3.63;;;;;;;0.52;100.00;99513.75;4894253;29;20036;-96
2024/01/16 11:16:53;;;;;;;6.60;1.80;;;;;;;0.60;100.00;99514.94;4901695;29;20134;-96
2024/01/16 11:19:20;;;;;;;3.97;2.90;;;;;;;0.73;100.00;99508.91;4899762;29;20038;-96
2024/01/16 11:21:52;;;;;;;5.97;2.50;;;;;;;0.82;100.00;99516.06;4890951;29;20397;-96
2024/01/16 11:24:18;;;;;;;2.85;1.23;;;;;;;0.89;100.00;99513.06;4901101;29;20032;-96
2024/01/16 11:26:44;;;;;;;4.15;1.30;;;;;;;0.96;100.00;99511.69;4885313;29;20095;-96
2024/01/16 11:29:26;;;;;;;3.47;1.45;;;;;;;1.07;100.00;99503.97;4883009;29;20191;-96
2024/01/16 11:31:53;;;;;;;4.53;2.00;;;;;;;1.10;100.00;99508.13;4885466;29;20044;-95
2024/01/16 11:34:40;;;;;;;3.83;1.38;;;;;;;1.26;100.00;99494.88;4905152;29;20039;-96
2024/01/16 11:37:13;;;;;;;3.15;1.10;;;;;;;1.28;100.00;99495.59;4884483;28;20114;-96
2024/01/16 11:39:42;;;;;;;2.33;1.20;;;;;;;1.34;100.00;99489.13;4905794;29;20127;-96
2024/01/16 11:42:09;;;;;;;6.30;2.88;;;;;;;1.40;100.00;99486.09;4888951;28;20052;-96
2024/01/16 11:44:47;;;;;;;8.45;3.00;;;;;;;1.57;100.00;99481.47;4900441;29;20070;-96
2024/01/16 11:47:18;;;;;;;9.38;5.38;;;;;;;1.60;100.00;99473.44;4903472;28;20174;-96
2024/01/16 11:49:46;;;;;;;5.97;2.58;;;;;;;1.68;100.00;99485.91;4899551;29;20036;-96
2024/01/16 11:52:13;;;;;;;13.77;8.35;;;;;;;1.67;100.00;99473.81;4895529;29;20503;-96
2024/01/16 11:54:42;;;;;;;11.10;4.80;;;;;;;1.81;100.00;99467.59;4899413;29;20043;-96
2024/01/16 11:57:55;;;;;;;13.85;4.32;;;;;;;1.91;100.00;99467.78;4896418;29;20040;-96
2024/01/16 12:00:21;;;;;;;8.32;4.20;;;;;;;1.90;100.00;99453.06;4857339;29;20045;-95
2024/01/16 12:02:54;;;;;;;2.50;1.65;;;;;;;1.98;100.00;99448.97;4878600;29;20192;-96
2024/01/16 12:05:20;;;;;;;9.02;4.85;;;;;;;2.06;100.00;99448.38;4868670;29;20043;-96
2024/01/16 12:07:51;;;;;;;14.10;8.75;;;;;;;2.14;100.00;99434.78;4900476;29;20036;-94
2024/01/16 12:10:18;;;;;;;9.02;3.55;;;;;;;2.20;100.00;99439.53;4886379;29;20035;-94
2024/01/16 12:12:44;;;;;;;12.02;6.68;;;;;;;2.24;100.00;99432.31;4883848;29;20508;-96
2024/01/16 12:15:16;;;;;;;8.25;3.15;;;;;;;2.29;100.00;99430.22;4899239;29;20118;-96
2024/01/16 12:17:55;;;;;;;14.00;8.30;;;;;;;2.38;100.00;99422.59;4893548;29;20035;-95
2024/01/16 12:20:22;;;;;;;6.50;3.00;;;;;;;2.40;100.00;99425.94;4894691;29;20056;-96
2024/01/16 12:23:00;;;;;;;7.30;3.25;;;;;;;2.47;100.00;99421.91;4886305;29;20102;-96
2024/01/16 12:25:27;;;;;;;3.53;1.23;;;;;;;2.53;100.00;99421.47;4878829;29;20042;-96
2024/01/16 12:27:56;;;;;;;3.28;1.40;;;;;;;2.61;100.00;99410.44;4902453;29;20042;-96
2024/01/16 12:30:33;;;;;;;4.82;1.85;;;;;;;2.70;100.00;99409.72;4889389;29;20035;-96
2024/01/16 12:33:09;;;;;;;4.35;1.63;;;;;;;2.72;100.00;99404.38;4895448;29;20351;-96
2024/01/16 12:35:37;;;;;;;6.15;2.15;;;;;;;2.82;100.00;99397.47;4888416;29;20039;-96
2024/01/16 12:38:06;;;;;;;12.38;2.58;;;;;;;2.89;100.00;99400.44;4885861;29;20055;-95
2024/01/16 12:40:36;;;;;;;4.03;1.55;;;;;;;2.88;100.00;99396.19;4897031;29;20047;-96
2024/01/16 12:43:04;;;;;;;6.95;1.50;;;;;;;2.85;100.00;99388.59;4916068;29;20040;-96
2024/01/16 12:45:31;;;;;;;3.05;1.90;;;;;;;2.85;100.00;99386.00;4905891;29;20072;-96
2024/01/16 12:47:59;;;;;;;13.48;6.90;;;;;;;2.85;100.00;99378.16;4904568;29;20038;-96
2024/01/16 12:50:27;;;;;;;10.52;4.40;;;;;;;2.89;100.00;99361.28;4911711;29;20035;-96
2024/01/16 12:53:10;;;;;;;11.50;5.63;;;;;;;2.97;100.00;99366.75;4896335;29;20485;-96
2024/01/16 12:55:38;;;;;;;9.85;3.33;;;;;;;2.92;100.00;99365.44;4897958;29;20096;-96
2024/01/16 12:58:18;;;;;;;4.85;1.90;;;;;;;2.96;100.00;99353.81;4893902;29;20071;-96
2024/01/16 13:00:45;;;;;;;12.23;6.13;;;;;;;2.92;100.00;99360.22;4896743;29;20039;-96
2024/01/16 13:03:27;;;;;;;5.47;3.28;;;;;;;2.91;100.00;99348.97;4898312;29;20044;-96
2024/01/16 13:05:57;;;;;;;7.72;3.90;;;;;;;2.82;100.00;99342.66;4885788;29;20042;-94
2024/01/16 13:08:27;;;;;;;7.05;2.05;;;;;;;2.78;100.00;99330.84;4900000;29;20050;-93
2024/01/16 13:11:07;;;;;;;5.43;2.42;;;;;;;2.86;100.00;99335.44;4899675;29;20040;-94
2024/01/16 13:13:34;;;;;;;10.80;5.38;;;;;;;2.84;100.00;99319.91;4899156;29;20050;-95
2024/01/16 13:16:01;;;;;;;4.57;1.83;;;;;;;2.92;100.00;99321.91;4899804;29;20953;-96
2024/01/16 13:18:29;;;;;;;8.50;5.50;;;;;;;3.03;100.00;99322.81;4882544;29;20032;-96
2024/01/16 13:20:57;;;;;;;10.35;4.70;;;;;;;3.08;100.00;99321.50;4914547;29;20050;-96
2024/01/16 13:23:27;;;;;;;6.65;2.38;;;;;;;3.15;100.00;99316.63;4892901;29;20056;-96